sensor_id;sensor_type;location;lat;lon;timestamp;P1;durP1;ratioP1;P2;durP2;ratioP2
21959;SDS011;11144;43.030;25.108;2023-05-10T00:01:21;6.03;;;3.58;;
21959;SDS011;11144;43.030;25.108;2023-05-10T00:02:54;7.68;;;4.57;;
21959;SDS011;11144;43.030;25.108;2023-05-10T00:04:27;7.05;;;4.68;;
21959;SDS011;11144;43.030;25.108;2023-05-10T00:06:00;5.88;;;3.72;;
21959;SDS011;11144;43.030;25.108;2023-05-10T00:07:34;9.63;;;4.40;;
21959;SDS011;11144;43.030;25.108;2023-05-10T00:09:07;9.00;;;4.50;;
21959;SDS011;11144;43.030;25.108;2023-05-10T00:10:40;8.52;;;4.82;;
21959;SDS011;11144;43.030;25.108;2023-05-10T00:12:13;8.18;;;4.68;;
21959;SDS011;11144;43.030;25.108;2023-05-10T00:13:47;8.60;;;4.35;;
21959;SDS011;11144;43.030;25.108;2023-05-10T00:15:20;11.63;;;5.07;;
21959;SDS011;11144;43.030;25.108;2023-05-10T00:16:54;7.60;;;4.75;;
21959;SDS011;11144;43.030;25.108;2023-05-10T00:18:27;6.13;;;4.10;;
21959;SDS011;11144;43.030;25.108;2023-05-10T00:20:00;10.85;;;4.68;;
21959;SDS011;11144;43.030;25.108;2023-05-10T00:21:32;8.73;;;5.07;;
21959;SDS011;11144;43.030;25.108;2023-05-10T00:23:06;7.65;;;4.25;;
21959;SDS011;11144;43.030;25.108;2023-05-10T00:24:39;7.60;;;4.55;;
21959;SDS011;11144;43.030;25.108;2023-05-10T00:26:12;6.80;;;4.60;;
21959;SDS011;11144;43.030;25.108;2023-05-10T00:27:49;8.07;;;4.43;;
21959;SDS011;11144;43.030;25.108;2023-05-10T00:29:22;7.00;;;4.28;;
21959;SDS011;11144;43.030;25.108;2023-05-10T00:30:54;8.43;;;4.25;;
21959;SDS011;11144;43.030;25.108;2023-05-10T00:32:29;6.82;;;4.60;;
21959;SDS011;11144;43.030;25.108;2023-05-10T00:34:02;8.10;;;4.95;;
21959;SDS011;11144;43.030;25.108;2023-05-10T00:35:36;7.00;;;4.57;;
21959;SDS011;11144;43.030;25.108;2023-05-10T00:37:09;9.02;;;4.97;;
21959;SDS011;11144;43.030;25.108;2023-05-10T00:38:42;8.38;;;4.82;;
21959;SDS011;11144;43.030;25.108;2023-05-10T00:40:15;9.43;;;4.93;;
21959;SDS011;11144;43.030;25.108;2023-05-10T00:41:53;11.57;;;5.55;;
21959;SDS011;11144;43.030;25.108;2023-05-10T00:43:26;10.70;;;5.22;;
21959;SDS011;11144;43.030;25.108;2023-05-10T00:45:00;7.65;;;4.68;;
21959;SDS011;11144;43.030;25.108;2023-05-10T00:46:34;6.95;;;4.47;;
21959;SDS011;11144;43.030;25.108;2023-05-10T00:48:09;6.45;;;4.53;;
21959;SDS011;11144;43.030;25.108;2023-05-10T00:49:42;6.65;;;4.32;;
21959;SDS011;11144;43.030;25.108;2023-05-10T00:51:16;6.32;;;4.32;;
21959;SDS011;11144;43.030;25.108;2023-05-10T00:52:49;8.55;;;4.57;;
21959;SDS011;11144;43.030;25.108;2023-05-10T00:54:23;6.35;;;4.68;;
21959;SDS011;11144;43.030;25.108;2023-05-10T00:55:56;5.97;;;3.83;;
21959;SDS011;11144;43.030;25.108;2023-05-10T00:57:30;9.73;;;4.45;;
21959;SDS011;11144;43.030;25.108;2023-05-10T00:59:04;10.57;;;4.72;;
21959;SDS011;11144;43.030;25.108;2023-05-10T01:00:38;7.53;;;4.72;;
21959;SDS011;11144;43.030;25.108;2023-05-10T01:02:15;7.70;;;4.82;;
21959;SDS011;11144;43.030;25.108;2023-05-10T01:03:49;8.25;;;4.80;;
21959;SDS011;11144;43.030;25.108;2023-05-10T01:05:24;7.95;;;4.57;;
21959;SDS011;11144;43.030;25.108;2023-05-10T01:06:57;8.25;;;4.80;;
21959;SDS011;11144;43.030;25.108;2023-05-10T01:08:30;7.82;;;5.03;;
21959;SDS011;11144;43.030;25.108;2023-05-10T01:10:04;10.02;;;5.05;;
21959;SDS011;11144;43.030;25.108;2023-05-10T01:11:40;8.18;;;5.28;;
21959;SDS011;11144;43.030;25.108;2023-05-10T01:13:13;8.95;;;5.43;;
21959;SDS011;11144;43.030;25.108;2023-05-10T01:14:56;8.95;;;5.50;;
21959;SDS011;11144;43.030;25.108;2023-05-10T01:16:31;8.68;;;5.22;;
21959;SDS011;11144;43.030;25.108;2023-05-10T01:18:07;7.20;;;4.38;;
21959;SDS011;11144;43.030;25.108;2023-05-10T01:19:43;7.93;;;4.85;;
21959;SDS011;11144;43.030;25.108;2023-05-10T01:21:18;8.40;;;5.28;;
21959;SDS011;11144;43.030;25.108;2023-05-10T01:27:03;7.35;;;4.57;;
21959;SDS011;11144;43.030;25.108;2023-05-10T01:29:02;8.07;;;4.78;;
21959;SDS011;11144;43.030;25.108;2023-05-10T01:32:56;8.38;;;4.65;;
21959;SDS011;11144;43.030;25.108;2023-05-10T01:34:52;8.30;;;4.60;;
21959;SDS011;11144;43.030;25.108;2023-05-10T01:36:32;7.35;;;4.57;;
21959;SDS011;11144;43.030;25.108;2023-05-10T01:38:28;8.23;;;4.55;;
21959;SDS011;11144;43.030;25.108;2023-05-10T01:40:13;6.75;;;4.25;;
21959;SDS011;11144;43.030;25.108;2023-05-10T01:41:54;12.10;;;4.07;;
21959;SDS011;11144;43.030;25.108;2023-05-10T01:43:31;6.18;;;4.20;;
21959;SDS011;11144;43.030;25.108;2023-05-10T01:45:11;7.07;;;4.32;;
21959;SDS011;11144;43.030;25.108;2023-05-10T01:46:51;6.15;;;4.05;;
21959;SDS011;11144;43.030;25.108;2023-05-10T01:48:32;6.57;;;3.10;;
21959;SDS011;11144;43.030;25.108;2023-05-10T01:50:06;5.32;;;3.70;;
21959;SDS011;11144;43.030;25.108;2023-05-10T01:51:47;7.07;;;3.40;;
21959;SDS011;11144;43.030;25.108;2023-05-10T01:53:26;5.28;;;3.30;;
21959;SDS011;11144;43.030;25.108;2023-05-10T01:55:02;5.50;;;3.22;;
21959;SDS011;11144;43.030;25.108;2023-05-10T01:56:39;6.45;;;3.25;;
21959;SDS011;11144;43.030;25.108;2023-05-10T01:58:15;5.63;;;3.13;;
21959;SDS011;11144;43.030;25.108;2023-05-10T01:59:53;5.50;;;3.40;;
21959;SDS011;11144;43.030;25.108;2023-05-10T02:01:27;5.38;;;3.30;;
21959;SDS011;11144;43.030;25.108;2023-05-10T02:03:01;4.05;;;2.33;;
21959;SDS011;11144;43.030;25.108;2023-05-10T02:04:42;4.38;;;2.50;;
21959;SDS011;11144;43.030;25.108;2023-05-10T02:06:18;4.20;;;2.75;;
21959;SDS011;11144;43.030;25.108;2023-05-10T02:07:52;3.85;;;2.67;;
21959;SDS011;11144;43.030;25.108;2023-05-10T02:09:27;3.08;;;2.20;;
21959;SDS011;11144;43.030;25.108;2023-05-10T02:11:02;4.53;;;2.45;;
21959;SDS011;11144;43.030;25.108;2023-05-10T02:12:39;6.32;;;2.83;;
21959;SDS011;11144;43.030;25.108;2023-05-10T02:14:14;4.82;;;2.30;;
21959;SDS011;11144;43.030;25.108;2023-05-10T02:15:49;6.85;;;2.25;;
21959;SDS011;11144;43.030;25.108;2023-05-10T02:17:23;6.00;;;2.78;;
21959;SDS011;11144;43.030;25.108;2023-05-10T02:18:58;5.47;;;2.95;;
21959;SDS011;11144;43.030;25.108;2023-05-10T02:20:35;7.05;;;2.58;;
21959;SDS011;11144;43.030;25.108;2023-05-10T02:22:10;4.65;;;2.47;;
21959;SDS011;11144;43.030;25.108;2023-05-10T02:23:44;6.55;;;2.53;;
21959;SDS011;11144;43.030;25.108;2023-05-10T02:25:19;3.38;;;2.08;;
21959;SDS011;11144;43.030;25.108;2023-05-10T02:26:54;4.20;;;2.20;;
21959;SDS011;11144;43.030;25.108;2023-05-10T02:28:28;3.85;;;2.35;;
21959;SDS011;11144;43.030;25.108;2023-05-10T02:30:04;2.85;;;2.08;;
21959;SDS011;11144;43.030;25.108;2023-05-10T02:31:39;4.78;;;2.38;;
21959;SDS011;11144;43.030;25.108;2023-05-10T02:33:15;15.32;;;7.25;;
21959;SDS011;11144;43.030;25.108;2023-05-10T02:34:49;5.70;;;2.92;;
21959;SDS011;11144;43.030;25.108;2023-05-10T02:36:26;8.93;;;4.47;;
21959;SDS011;11144;43.030;25.108;2023-05-10T02:38:01;9.93;;;5.25;;
21959;SDS011;11144;43.030;25.108;2023-05-10T02:39:34;7.07;;;3.78;;
21959;SDS011;11144;43.030;25.108;2023-05-10T02:41:07;4.30;;;2.40;;
21959;SDS011;11144;43.030;25.108;2023-05-10T02:42:42;4.65;;;2.65;;
21959;SDS011;11144;43.030;25.108;2023-05-10T02:44:18;4.38;;;2.42;;
21959;SDS011;11144;43.030;25.108;2023-05-10T02:45:53;3.47;;;2.03;;
21959;SDS011;11144;43.030;25.108;2023-05-10T02:47:26;2.83;;;2.17;;
21959;SDS011;11144;43.030;25.108;2023-05-10T02:48:58;6.10;;;2.63;;
21959;SDS011;11144;43.030;25.108;2023-05-10T02:50:33;4.30;;;2.55;;
21959;SDS011;11144;43.030;25.108;2023-05-10T02:52:09;5.57;;;2.65;;
21959;SDS011;11144;43.030;25.108;2023-05-10T02:53:43;4.03;;;2.75;;
21959;SDS011;11144;43.030;25.108;2023-05-10T02:55:19;3.45;;;2.50;;
21959;SDS011;11144;43.030;25.108;2023-05-10T02:56:56;6.28;;;2.47;;
21959;SDS011;11144;43.030;25.108;2023-05-10T02:58:30;3.55;;;2.63;;
21959;SDS011;11144;43.030;25.108;2023-05-10T03:00:03;3.92;;;2.95;;
21959;SDS011;11144;43.030;25.108;2023-05-10T03:01:37;4.28;;;2.10;;
21959;SDS011;11144;43.030;25.108;2023-05-10T03:03:11;8.23;;;3.38;;
21959;SDS011;11144;43.030;25.108;2023-05-10T03:04:43;11.90;;;6.55;;
21959;SDS011;11144;43.030;25.108;2023-05-10T03:06:16;7.47;;;4.25;;
21959;SDS011;11144;43.030;25.108;2023-05-10T03:07:51;4.60;;;3.10;;
21959;SDS011;11144;43.030;25.108;2023-05-10T03:09:24;4.07;;;2.47;;
21959;SDS011;11144;43.030;25.108;2023-05-10T03:11:01;3.28;;;2.42;;
21959;SDS011;11144;43.030;25.108;2023-05-10T03:12:55;5.38;;;2.53;;
21959;SDS011;11144;43.030;25.108;2023-05-10T03:14:40;3.38;;;2.25;;
21959;SDS011;11144;43.030;25.108;2023-05-10T03:16:22;5.75;;;2.53;;
21959;SDS011;11144;43.030;25.108;2023-05-10T03:18:01;3.40;;;2.50;;
21959;SDS011;11144;43.030;25.108;2023-05-10T03:19:40;4.45;;;2.78;;
21959;SDS011;11144;43.030;25.108;2023-05-10T03:21:19;4.10;;;2.67;;
21959;SDS011;11144;43.030;25.108;2023-05-10T03:23:02;7.15;;;3.00;;
21959;SDS011;11144;43.030;25.108;2023-05-10T03:24:40;3.40;;;2.15;;
21959;SDS011;11144;43.030;25.108;2023-05-10T03:26:15;3.30;;;2.17;;
21959;SDS011;11144;43.030;25.108;2023-05-10T03:27:53;3.55;;;2.50;;
21959;SDS011;11144;43.030;25.108;2023-05-10T03:29:30;4.53;;;2.40;;
21959;SDS011;11144;43.030;25.108;2023-05-10T03:31:04;5.32;;;2.72;;
21959;SDS011;11144;43.030;25.108;2023-05-10T03:32:39;4.65;;;2.38;;
21959;SDS011;11144;43.030;25.108;2023-05-10T03:34:12;3.53;;;2.30;;
21959;SDS011;11144;43.030;25.108;2023-05-10T03:35:47;4.38;;;2.63;;
21959;SDS011;11144;43.030;25.108;2023-05-10T03:37:20;7.55;;;3.63;;
21959;SDS011;11144;43.030;25.108;2023-05-10T03:38:55;5.03;;;2.80;;
21959;SDS011;11144;43.030;25.108;2023-05-10T03:40:28;8.55;;;2.55;;
21959;SDS011;11144;43.030;25.108;2023-05-10T03:42:03;3.20;;;2.00;;
21959;SDS011;11144;43.030;25.108;2023-05-10T03:43:36;4.03;;;2.30;;
21959;SDS011;11144;43.030;25.108;2023-05-10T03:45:10;4.50;;;2.40;;
21959;SDS011;11144;43.030;25.108;2023-05-10T03:46:43;3.80;;;2.47;;
21959;SDS011;11144;43.030;25.108;2023-05-10T03:48:16;3.17;;;1.85;;
21959;SDS011;11144;43.030;25.108;2023-05-10T03:49:50;3.85;;;2.20;;
21959;SDS011;11144;43.030;25.108;2023-05-10T03:51:22;4.93;;;2.63;;
21959;SDS011;11144;43.030;25.108;2023-05-10T03:52:59;6.20;;;2.55;;
21959;SDS011;11144;43.030;25.108;2023-05-10T03:54:35;4.53;;;2.25;;
21959;SDS011;11144;43.030;25.108;2023-05-10T03:56:09;3.75;;;2.20;;
21959;SDS011;11144;43.030;25.108;2023-05-10T03:57:42;4.55;;;2.60;;
21959;SDS011;11144;43.030;25.108;2023-05-10T03:59:16;6.68;;;2.67;;
21959;SDS011;11144;43.030;25.108;2023-05-10T04:00:49;5.45;;;2.72;;
21959;SDS011;11144;43.030;25.108;2023-05-10T04:02:24;3.20;;;2.33;;
21959;SDS011;11144;43.030;25.108;2023-05-10T04:03:57;6.32;;;2.33;;
21959;SDS011;11144;43.030;25.108;2023-05-10T04:05:30;2.63;;;2.10;;
21959;SDS011;11144;43.030;25.108;2023-05-10T04:07:04;4.38;;;2.55;;
21959;SDS011;11144;43.030;25.108;2023-05-10T04:08:36;4.47;;;2.38;;
21959;SDS011;11144;43.030;25.108;2023-05-10T04:10:11;4.05;;;2.45;;
21959;SDS011;11144;43.030;25.108;2023-05-10T04:11:43;3.22;;;1.75;;
21959;SDS011;11144;43.030;25.108;2023-05-10T04:13:16;3.70;;;1.88;;
21959;SDS011;11144;43.030;25.108;2023-05-10T04:14:50;3.40;;;1.88;;
21959;SDS011;11144;43.030;25.108;2023-05-10T04:16:23;6.75;;;2.08;;
21959;SDS011;11144;43.030;25.108;2023-05-10T04:17:56;4.28;;;2.40;;
21959;SDS011;11144;43.030;25.108;2023-05-10T04:19:29;5.05;;;2.47;;
21959;SDS011;11144;43.030;25.108;2023-05-10T04:21:03;4.88;;;3.20;;
21959;SDS011;11144;43.030;25.108;2023-05-10T04:22:36;4.15;;;2.95;;
21959;SDS011;11144;43.030;25.108;2023-05-10T04:24:09;4.50;;;2.47;;
21959;SDS011;11144;43.030;25.108;2023-05-10T04:25:45;5.30;;;3.13;;
21959;SDS011;11144;43.030;25.108;2023-05-10T04:27:18;3.67;;;1.95;;
21959;SDS011;11144;43.030;25.108;2023-05-10T04:28:52;9.30;;;2.58;;
21959;SDS011;11144;43.030;25.108;2023-05-10T04:30:25;4.47;;;2.40;;
21959;SDS011;11144;43.030;25.108;2023-05-10T04:32:00;4.43;;;2.50;;
21959;SDS011;11144;43.030;25.108;2023-05-10T04:33:32;4.72;;;2.28;;
21959;SDS011;11144;43.030;25.108;2023-05-10T04:35:06;4.20;;;2.20;;
21959;SDS011;11144;43.030;25.108;2023-05-10T04:36:41;3.55;;;2.10;;
21959;SDS011;11144;43.030;25.108;2023-05-10T04:38:15;3.28;;;2.40;;
21959;SDS011;11144;43.030;25.108;2023-05-10T04:39:48;4.43;;;2.40;;
21959;SDS011;11144;43.030;25.108;2023-05-10T04:41:23;3.47;;;2.30;;
21959;SDS011;11144;43.030;25.108;2023-05-10T04:42:56;3.03;;;1.50;;
21959;SDS011;11144;43.030;25.108;2023-05-10T04:44:30;4.78;;;2.42;;
21959;SDS011;11144;43.030;25.108;2023-05-10T04:46:03;6.28;;;2.28;;
21959;SDS011;11144;43.030;25.108;2023-05-10T04:47:36;4.10;;;2.53;;
21959;SDS011;11144;43.030;25.108;2023-05-10T04:49:09;4.32;;;2.08;;
21959;SDS011;11144;43.030;25.108;2023-05-10T04:50:45;3.63;;;2.33;;
21959;SDS011;11144;43.030;25.108;2023-05-10T04:52:19;3.08;;;1.80;;
21959;SDS011;11144;43.030;25.108;2023-05-10T04:53:52;2.70;;;1.75;;
21959;SDS011;11144;43.030;25.108;2023-05-10T04:55:36;9.25;;;1.98;;
21959;SDS011;11144;43.030;25.108;2023-05-10T04:57:11;3.28;;;2.00;;
21959;SDS011;11144;43.030;25.108;2023-05-10T04:58:44;3.55;;;1.85;;
21959;SDS011;11144;43.030;25.108;2023-05-10T05:00:18;2.60;;;2.08;;
21959;SDS011;11144;43.030;25.108;2023-05-10T05:01:52;4.18;;;2.25;;
21959;SDS011;11144;43.030;25.108;2023-05-10T05:03:25;4.15;;;2.75;;
21959;SDS011;11144;43.030;25.108;2023-05-10T05:04:58;3.42;;;2.35;;
21959;SDS011;11144;43.030;25.108;2023-05-10T05:06:32;2.17;;;1.70;;
21959;SDS011;11144;43.030;25.108;2023-05-10T05:08:05;3.00;;;2.08;;
21959;SDS011;11144;43.030;25.108;2023-05-10T05:09:38;3.00;;;1.90;;
21959;SDS011;11144;43.030;25.108;2023-05-10T05:11:11;7.78;;;2.10;;
21959;SDS011;11144;43.030;25.108;2023-05-10T05:12:46;2.78;;;1.75;;
21959;SDS011;11144;43.030;25.108;2023-05-10T05:14:19;2.75;;;1.52;;
21959;SDS011;11144;43.030;25.108;2023-05-10T05:15:52;3.17;;;2.20;;
21959;SDS011;11144;43.030;25.108;2023-05-10T05:17:26;5.22;;;2.22;;
21959;SDS011;11144;43.030;25.108;2023-05-10T05:18:59;4.28;;;2.28;;
21959;SDS011;11144;43.030;25.108;2023-05-10T05:20:32;4.45;;;2.00;;
21959;SDS011;11144;43.030;25.108;2023-05-10T05:22:06;2.22;;;1.40;;
21959;SDS011;11144;43.030;25.108;2023-05-10T05:23:40;5.47;;;1.88;;
21959;SDS011;11144;43.030;25.108;2023-05-10T05:25:13;2.10;;;1.30;;
21959;SDS011;11144;43.030;25.108;2023-05-10T05:26:47;3.72;;;1.42;;
21959;SDS011;11144;43.030;25.108;2023-05-10T05:28:21;5.75;;;1.83;;
21959;SDS011;11144;43.030;25.108;2023-05-10T05:29:54;3.70;;;1.73;;
21959;SDS011;11144;43.030;25.108;2023-05-10T05:31:28;4.68;;;1.75;;
21959;SDS011;11144;43.030;25.108;2023-05-10T05:33:02;4.53;;;1.83;;
21959;SDS011;11144;43.030;25.108;2023-05-10T05:34:35;2.95;;;1.70;;
21959;SDS011;11144;43.030;25.108;2023-05-10T05:36:08;4.18;;;1.85;;
21959;SDS011;11144;43.030;25.108;2023-05-10T05:37:42;2.65;;;1.80;;
21959;SDS011;11144;43.030;25.108;2023-05-10T05:39:15;2.55;;;1.80;;
21959;SDS011;11144;43.030;25.108;2023-05-10T05:40:48;4.55;;;1.85;;
21959;SDS011;11144;43.030;25.108;2023-05-10T05:42:22;3.58;;;2.30;;
21959;SDS011;11144;43.030;25.108;2023-05-10T05:43:56;3.80;;;2.05;;
21959;SDS011;11144;43.030;25.108;2023-05-10T05:45:30;2.88;;;2.13;;
21959;SDS011;11144;43.030;25.108;2023-05-10T05:47:03;3.58;;;2.17;;
21959;SDS011;11144;43.030;25.108;2023-05-10T05:48:36;3.13;;;1.73;;
21959;SDS011;11144;43.030;25.108;2023-05-10T05:50:10;4.30;;;1.80;;
21959;SDS011;11144;43.030;25.108;2023-05-10T05:51:43;2.53;;;1.80;;
21959;SDS011;11144;43.030;25.108;2023-05-10T05:53:17;5.22;;;1.88;;
21959;SDS011;11144;43.030;25.108;2023-05-10T05:54:50;3.00;;;1.60;;
21959;SDS011;11144;43.030;25.108;2023-05-10T05:56:24;5.43;;;1.65;;
21959;SDS011;11144;43.030;25.108;2023-05-10T05:57:57;3.05;;;1.45;;
21959;SDS011;11144;43.030;25.108;2023-05-10T05:59:32;6.18;;;1.83;;
21959;SDS011;11144;43.030;25.108;2023-05-10T06:01:05;4.13;;;2.03;;
21959;SDS011;11144;43.030;25.108;2023-05-10T06:02:39;2.97;;;1.83;;
21959;SDS011;11144;43.030;25.108;2023-05-10T06:04:12;3.42;;;2.08;;
21959;SDS011;11144;43.030;25.108;2023-05-10T06:05:46;4.97;;;1.88;;
21959;SDS011;11144;43.030;25.108;2023-05-10T06:07:19;2.83;;;1.98;;
21959;SDS011;11144;43.030;25.108;2023-05-10T06:08:53;2.78;;;1.70;;
21959;SDS011;11144;43.030;25.108;2023-05-10T06:10:26;4.15;;;1.95;;
21959;SDS011;11144;43.030;25.108;2023-05-10T06:11:59;4.03;;;1.70;;
21959;SDS011;11144;43.030;25.108;2023-05-10T06:13:33;7.47;;;2.08;;
21959;SDS011;11144;43.030;25.108;2023-05-10T06:15:09;3.97;;;1.67;;
21959;SDS011;11144;43.030;25.108;2023-05-10T06:16:43;5.53;;;2.25;;
21959;SDS011;11144;43.030;25.108;2023-05-10T06:18:16;4.75;;;2.30;;
21959;SDS011;11144;43.030;25.108;2023-05-10T06:19:49;2.75;;;1.92;;
21959;SDS011;11144;43.030;25.108;2023-05-10T06:21:22;6.13;;;2.08;;
21959;SDS011;11144;43.030;25.108;2023-05-10T06:22:55;3.58;;;2.20;;
21959;SDS011;11144;43.030;25.108;2023-05-10T06:24:29;2.88;;;1.77;;
21959;SDS011;11144;43.030;25.108;2023-05-10T06:26:02;4.22;;;2.05;;
21959;SDS011;11144;43.030;25.108;2023-05-10T06:27:36;3.90;;;1.75;;
21959;SDS011;11144;43.030;25.108;2023-05-10T06:29:09;2.97;;;1.80;;
21959;SDS011;11144;43.030;25.108;2023-05-10T06:30:43;6.88;;;1.75;;
21959;SDS011;11144;43.030;25.108;2023-05-10T06:32:16;3.97;;;2.00;;
21959;SDS011;11144;43.030;25.108;2023-05-10T06:33:50;5.93;;;3.00;;
21959;SDS011;11144;43.030;25.108;2023-05-10T06:35:27;2.83;;;1.80;;
21959;SDS011;11144;43.030;25.108;2023-05-10T06:37:01;4.18;;;1.88;;
21959;SDS011;11144;43.030;25.108;2023-05-10T06:38:34;6.55;;;2.17;;
21959;SDS011;11144;43.030;25.108;2023-05-10T06:40:08;9.27;;;2.28;;
21959;SDS011;11144;43.030;25.108;2023-05-10T06:41:42;5.20;;;1.92;;
21959;SDS011;11144;43.030;25.108;2023-05-10T06:43:15;3.65;;;1.80;;
21959;SDS011;11144;43.030;25.108;2023-05-10T06:44:48;3.90;;;2.05;;
21959;SDS011;11144;43.030;25.108;2023-05-10T06:46:23;3.20;;;1.77;;
21959;SDS011;11144;43.030;25.108;2023-05-10T06:47:56;3.10;;;1.58;;
21959;SDS011;11144;43.030;25.108;2023-05-10T06:49:29;3.38;;;1.92;;
21959;SDS011;11144;43.030;25.108;2023-05-10T06:51:03;5.70;;;1.63;;
21959;SDS011;11144;43.030;25.108;2023-05-10T06:52:36;3.15;;;1.95;;
21959;SDS011;11144;43.030;25.108;2023-05-10T06:54:10;3.28;;;2.10;;
21959;SDS011;11144;43.030;25.108;2023-05-10T06:55:43;7.53;;;1.90;;
21959;SDS011;11144;43.030;25.108;2023-05-10T06:57:16;3.20;;;1.58;;
21959;SDS011;11144;43.030;25.108;2023-05-10T06:59:02;3.75;;;1.45;;
21959;SDS011;11144;43.030;25.108;2023-05-10T07:00:35;3.50;;;1.65;;
21959;SDS011;11144;43.030;25.108;2023-05-10T07:02:13;5.05;;;1.77;;
21959;SDS011;11144;43.030;25.108;2023-05-10T07:03:48;1.63;;;1.13;;
21959;SDS011;11144;43.030;25.108;2023-05-10T07:05:22;2.80;;;1.58;;
21959;SDS011;11144;43.030;25.108;2023-05-10T07:06:55;4.25;;;1.73;;
21959;SDS011;11144;43.030;25.108;2023-05-10T07:08:29;4.47;;;2.03;;
21959;SDS011;11144;43.030;25.108;2023-05-10T07:10:02;2.58;;;1.92;;
21959;SDS011;11144;43.030;25.108;2023-05-10T07:11:36;4.13;;;1.80;;
21959;SDS011;11144;43.030;25.108;2023-05-10T07:13:09;4.60;;;1.60;;
21959;SDS011;11144;43.030;25.108;2023-05-10T07:14:43;1.80;;;1.55;;
21959;SDS011;11144;43.030;25.108;2023-05-10T07:16:16;3.13;;;1.60;;
21959;SDS011;11144;43.030;25.108;2023-05-10T07:17:51;2.70;;;1.48;;
21959;SDS011;11144;43.030;25.108;2023-05-10T07:19:24;5.15;;;1.45;;
21959;SDS011;11144;43.030;25.108;2023-05-10T07:20:57;2.45;;;1.65;;
21959;SDS011;11144;43.030;25.108;2023-05-10T07:22:31;3.70;;;1.38;;
21959;SDS011;11144;43.030;25.108;2023-05-10T07:24:04;2.53;;;1.80;;
21959;SDS011;11144;43.030;25.108;2023-05-10T07:25:37;3.00;;;1.42;;
21959;SDS011;11144;43.030;25.108;2023-05-10T07:27:11;2.58;;;1.30;;
21959;SDS011;11144;43.030;25.108;2023-05-10T07:28:45;4.47;;;1.77;;
21959;SDS011;11144;43.030;25.108;2023-05-10T07:30:18;2.45;;;1.50;;
21959;SDS011;11144;43.030;25.108;2023-05-10T07:31:51;2.30;;;1.30;;
21959;SDS011;11144;43.030;25.108;2023-05-10T07:33:30;3.50;;;1.48;;
21959;SDS011;11144;43.030;25.108;2023-05-10T07:35:04;2.85;;;1.52;;
21959;SDS011;11144;43.030;25.108;2023-05-10T07:36:38;3.33;;;1.50;;
21959;SDS011;11144;43.030;25.108;2023-05-10T07:38:11;1.75;;;1.20;;
21959;SDS011;11144;43.030;25.108;2023-05-10T07:39:45;3.33;;;1.55;;
21959;SDS011;11144;43.030;25.108;2023-05-10T07:41:18;3.53;;;1.95;;
21959;SDS011;11144;43.030;25.108;2023-05-10T07:42:52;2.15;;;1.30;;
21959;SDS011;11144;43.030;25.108;2023-05-10T07:44:25;2.67;;;1.50;;
21959;SDS011;11144;43.030;25.108;2023-05-10T07:45:59;4.05;;;1.80;;
21959;SDS011;11144;43.030;25.108;2023-05-10T07:47:32;2.45;;;1.70;;
21959;SDS011;11144;43.030;25.108;2023-05-10T07:49:07;1.88;;;1.38;;
21959;SDS011;11144;43.030;25.108;2023-05-10T07:50:40;2.95;;;1.80;;
21959;SDS011;11144;43.030;25.108;2023-05-10T07:52:13;2.22;;;1.30;;
21959;SDS011;11144;43.030;25.108;2023-05-10T07:53:47;2.45;;;1.25;;
21959;SDS011;11144;43.030;25.108;2023-05-10T07:55:20;2.03;;;1.30;;
21959;SDS011;11144;43.030;25.108;2023-05-10T07:56:53;3.45;;;1.30;;
21959;SDS011;11144;43.030;25.108;2023-05-10T07:58:27;1.80;;;1.15;;
21959;SDS011;11144;43.030;25.108;2023-05-10T08:00:00;7.53;;;1.38;;
21959;SDS011;11144;43.030;25.108;2023-05-10T08:01:43;4.45;;;1.45;;
21959;SDS011;11144;43.030;25.108;2023-05-10T08:03:17;1.98;;;1.08;;
21959;SDS011;11144;43.030;25.108;2023-05-10T08:04:52;1.48;;;1.20;;
21959;SDS011;11144;43.030;25.108;2023-05-10T08:06:25;1.48;;;1.08;;
21959;SDS011;11144;43.030;25.108;2023-05-10T08:07:59;2.45;;;1.00;;
21959;SDS011;11144;43.030;25.108;2023-05-10T08:09:32;3.75;;;1.45;;
21959;SDS011;11144;43.030;25.108;2023-05-10T08:11:06;2.20;;;1.40;;
21959;SDS011;11144;43.030;25.108;2023-05-10T08:12:39;3.58;;;1.30;;
21959;SDS011;11144;43.030;25.108;2023-05-10T08:14:13;3.42;;;1.20;;
21959;SDS011;11144;43.030;25.108;2023-05-10T08:15:46;1.92;;;1.38;;
21959;SDS011;11144;43.030;25.108;2023-05-10T08:17:19;3.38;;;1.35;;
21959;SDS011;11144;43.030;25.108;2023-05-10T08:18:55;2.33;;;1.20;;
21959;SDS011;11144;43.030;25.108;2023-05-10T08:20:30;2.30;;;1.10;;
21959;SDS011;11144;43.030;25.108;2023-05-10T08:22:03;2.22;;;1.60;;
21959;SDS011;11144;43.030;25.108;2023-05-10T08:23:36;2.60;;;1.42;;
21959;SDS011;11144;43.030;25.108;2023-05-10T08:25:09;2.00;;;1.27;;
21959;SDS011;11144;43.030;25.108;2023-05-10T08:26:43;2.00;;;1.52;;
21959;SDS011;11144;43.030;25.108;2023-05-10T08:28:16;4.72;;;1.23;;
21959;SDS011;11144;43.030;25.108;2023-05-10T08:29:49;4.75;;;1.40;;
21959;SDS011;11144;43.030;25.108;2023-05-10T08:31:23;1.95;;;1.10;;
21959;SDS011;11144;43.030;25.108;2023-05-10T08:32:56;1.15;;;0.98;;
21959;SDS011;11144;43.030;25.108;2023-05-10T08:34:29;1.45;;;1.10;;
21959;SDS011;11144;43.030;25.108;2023-05-10T08:36:05;1.67;;;0.98;;
21959;SDS011;11144;43.030;25.108;2023-05-10T08:37:38;1.83;;;1.23;;
21959;SDS011;11144;43.030;25.108;2023-05-10T08:39:11;2.45;;;1.45;;
21959;SDS011;11144;43.030;25.108;2023-05-10T08:41:00;1.10;;;0.95;;
21959;SDS011;11144;43.030;25.108;2023-05-10T08:42:35;1.95;;;1.23;;
21959;SDS011;11144;43.030;25.108;2023-05-10T08:44:12;1.67;;;1.08;;
21959;SDS011;11144;43.030;25.108;2023-05-10T08:45:46;1.63;;;1.40;;
21959;SDS011;11144;43.030;25.108;2023-05-10T08:47:22;1.45;;;0.95;;
21959;SDS011;11144;43.030;25.108;2023-05-10T08:48:56;2.20;;;1.10;;
21959;SDS011;11144;43.030;25.108;2023-05-10T08:50:36;4.15;;;1.42;;
21959;SDS011;11144;43.030;25.108;2023-05-10T08:52:11;1.90;;;1.20;;
21959;SDS011;11144;43.030;25.108;2023-05-10T08:53:47;1.33;;;1.00;;
21959;SDS011;11144;43.030;25.108;2023-05-10T08:55:21;2.05;;;1.00;;
21959;SDS011;11144;43.030;25.108;2023-05-10T08:56:55;3.63;;;1.38;;
21959;SDS011;11144;43.030;25.108;2023-05-10T08:58:29;3.05;;;1.20;;
21959;SDS011;11144;43.030;25.108;2023-05-10T09:00:02;3.17;;;1.50;;
21959;SDS011;11144;43.030;25.108;2023-05-10T09:01:37;2.92;;;1.42;;
21959;SDS011;11144;43.030;25.108;2023-05-10T09:03:11;2.50;;;1.27;;
21959;SDS011;11144;43.030;25.108;2023-05-10T09:04:45;2.30;;;1.17;;
21959;SDS011;11144;43.030;25.108;2023-05-10T09:06:18;1.90;;;1.27;;
21959;SDS011;11144;43.030;25.108;2023-05-10T09:07:53;1.65;;;1.35;;
21959;SDS011;11144;43.030;25.108;2023-05-10T09:09:27;1.60;;;1.20;;
21959;SDS011;11144;43.030;25.108;2023-05-10T09:11:00;1.92;;;1.17;;
21959;SDS011;11144;43.030;25.108;2023-05-10T09:12:34;2.13;;;1.25;;
21959;SDS011;11144;43.030;25.108;2023-05-10T09:14:07;4.22;;;1.40;;
21959;SDS011;11144;43.030;25.108;2023-05-10T09:15:42;3.03;;;1.40;;
21959;SDS011;11144;43.030;25.108;2023-05-10T09:17:17;1.75;;;1.10;;
21959;SDS011;11144;43.030;25.108;2023-05-10T09:18:50;3.20;;;1.33;;
21959;SDS011;11144;43.030;25.108;2023-05-10T09:20:24;1.85;;;0.90;;
21959;SDS011;11144;43.030;25.108;2023-05-10T09:21:57;1.52;;;1.05;;
21959;SDS011;11144;43.030;25.108;2023-05-10T09:23:33;1.92;;;1.42;;
21959;SDS011;11144;43.030;25.108;2023-05-10T09:25:06;1.45;;;1.20;;
21959;SDS011;11144;43.030;25.108;2023-05-10T09:26:45;3.38;;;1.35;;
21959;SDS011;11144;43.030;25.108;2023-05-10T09:28:20;1.75;;;1.00;;